sensor_id;sensor_type;location;lat;lon;timestamp;pressure;altitude;pressure_sealevel;temperature;humidity
59289;BME280;45056;47.602;9.886;2022-09-16T00:01:32;92471.97;;;15.99;68.52
59289;BME280;45056;47.602;9.886;2022-09-16T00:04:04;92478.69;;;15.98;68.75
59289;BME280;45056;47.602;9.886;2022-09-16T00:06:32;92481.44;;;15.98;69.04
59289;BME280;45056;47.602;9.886;2022-09-16T00:09:00;92481.44;;;15.98;68.92
59289;BME280;45056;47.602;9.886;2022-09-16T00:11:31;92478.69;;;15.98;69.10
59289;BME280;45056;47.602;9.886;2022-09-16T00:14:01;92486.47;;;15.99;69.09
59289;BME280;45056;47.602;9.886;2022-09-16T00:16:31;92465.25;;;16.00;69.03
59289;BME280;45056;47.602;9.886;2022-09-16T00:19:00;92454.28;;;16.00;68.89
59289;BME280;45056;47.602;9.886;2022-09-16T00:21:52;92473.97;;;15.98;68.61
59289;BME280;45056;47.602;9.886;2022-09-16T00:24:23;92479.47;;;15.98;68.84
59289;BME280;45056;47.602;9.886;2022-09-16T00:26:52;92466.22;;;15.97;68.66
59289;BME280;45056;47.602;9.886;2022-09-16T00:29:21;92467.72;;;15.98;68.60
59289;BME280;45056;47.602;9.886;2022-09-16T00:31:49;92464.97;;;15.98;68.61
59289;BME280;45056;47.602;9.886;2022-09-16T00:34:18;92475.22;;;15.97;68.61
59289;BME280;45056;47.602;9.886;2022-09-16T00:36:46;92483.44;;;15.97;68.49
59289;BME280;45056;47.602;9.886;2022-09-16T00:39:19;92477.19;;;15.97;68.35
59289;BME280;45056;47.602;9.886;2022-09-16T00:41:47;92471.72;;;15.97;68.11
59289;BME280;45056;47.602;9.886;2022-09-16T00:44:51;92474.19;;;15.95;67.81
59289;BME280;45056;47.602;9.886;2022-09-16T00:47:27;92471.69;;;15.91;67.90
59289;BME280;45056;47.602;9.886;2022-09-16T00:50:03;92476.88;;;15.89;67.87
59289;BME280;45056;47.602;9.886;2022-09-16T00:52:36;92474.63;;;15.87;67.33
59289;BME280;45056;47.602;9.886;2022-09-16T00:55:20;92467.63;;;15.86;67.43
59289;BME280;45056;47.602;9.886;2022-09-16T00:57:58;92468.09;;;15.85;67.31
59289;BME280;45056;47.602;9.886;2022-09-16T01:00:37;92469.34;;;15.84;67.38
59289;BME280;45056;47.602;9.886;2022-09-16T01:03:06;92471.09;;;15.81;67.25
59289;BME280;45056;47.602;9.886;2022-09-16T01:05:36;92470.31;;;15.81;67.29
59289;BME280;45056;47.602;9.886;2022-09-16T01:08:06;92476.78;;;15.78;67.08
59289;BME280;45056;47.602;9.886;2022-09-16T01:10:35;92465.81;;;15.78;67.06
59289;BME280;45056;47.602;9.886;2022-09-16T01:13:06;92465.06;;;15.77;67.30
59289;BME280;45056;47.602;9.886;2022-09-16T01:15:47;92460.31;;;15.78;67.21
59289;BME280;45056;47.602;9.886;2022-09-16T01:18:32;92464.56;;;15.79;67.19
59289;BME280;45056;47.602;9.886;2022-09-16T01:21:17;92454.84;;;15.78;66.72
59289;BME280;45056;47.602;9.886;2022-09-16T01:24:23;92467.53;;;15.75;66.58
59289;BME280;45056;47.602;9.886;2022-09-16T01:30:34;92467.25;;;15.73;67.04
59289;BME280;45056;47.602;9.886;2022-09-16T01:33:33;92457.53;;;15.72;66.83
59289;BME280;45056;47.602;9.886;2022-09-16T01:36:27;92461.50;;;15.71;66.52
59289;BME280;45056;47.602;9.886;2022-09-16T01:39:17;92460.00;;;15.70;66.46
59289;BME280;45056;47.602;9.886;2022-09-16T01:42:17;92468.22;;;15.70;66.18
59289;BME280;45056;47.602;9.886;2022-09-16T01:45:03;92468.75;;;15.68;66.36
59289;BME280;45056;47.602;9.886;2022-09-16T01:47:48;92468.75;;;15.68;66.38
59289;BME280;45056;47.602;9.886;2022-09-16T01:50:29;92470.25;;;15.69;66.12
59289;BME280;45056;47.602;9.886;2022-09-16T01:53:13;92467.97;;;15.68;66.19
59289;BME280;45056;47.602;9.886;2022-09-16T01:55:57;92471.22;;;15.66;66.61
59289;BME280;45056;47.602;9.886;2022-09-16T01:58:53;92466.19;;;15.65;66.17
59289;BME280;45056;47.602;9.886;2022-09-16T02:01:33;92472.19;;;15.63;65.89
59289;BME280;45056;47.602;9.886;2022-09-16T02:04:17;92467.69;;;15.60;65.51
59289;BME280;45056;47.602;9.886;2022-09-16T02:06:53;92466.16;;;15.59;65.10
59289;BME280;45056;47.602;9.886;2022-09-16T02:09:30;92469.38;;;15.57;65.08
59289;BME280;45056;47.602;9.886;2022-09-16T02:12:07;92461.63;;;15.56;64.85
59289;BME280;45056;47.602;9.886;2022-09-16T02:14:42;92461.63;;;15.56;64.83
59289;BME280;45056;47.602;9.886;2022-09-16T02:17:16;92458.63;;;15.54;64.93
59289;BME280;45056;47.602;9.886;2022-09-16T02:19:55;92450.63;;;15.50;65.04
59289;BME280;45056;47.602;9.886;2022-09-16T02:22:32;92459.84;;;15.47;65.78
59289;BME280;45056;47.602;9.886;2022-09-16T02:25:08;92464.03;;;15.42;66.33
59289;BME280;45056;47.602;9.886;2022-09-16T02:27:40;92478.44;;;15.37;66.56
59289;BME280;45056;47.602;9.886;2022-09-16T02:30:15;92477.41;;;15.35;66.68
59289;BME280;45056;47.602;9.886;2022-09-16T02:32:49;92475.63;;;15.32;66.60
59289;BME280;45056;47.602;9.886;2022-09-16T02:35:27;92484.63;;;15.32;66.29
59289;BME280;45056;47.602;9.886;2022-09-16T02:38:02;92482.84;;;15.29;66.05
59289;BME280;45056;47.602;9.886;2022-09-16T02:40:43;92488.03;;;15.27;66.25
59289;BME280;45056;47.602;9.886;2022-09-16T02:43:15;92484.97;;;15.19;66.41
59289;BME280;45056;47.602;9.886;2022-09-16T02:45:48;92485.38;;;15.12;66.70
59289;BME280;45056;47.602;9.886;2022-09-16T02:48:36;92481.84;;;15.06;66.83
59289;BME280;45056;47.602;9.886;2022-09-16T02:51:26;92490.28;;;15.02;67.13
59289;BME280;45056;47.602;9.886;2022-09-16T02:54:05;92487.75;;;14.98;67.33
59289;BME280;45056;47.602;9.886;2022-09-16T02:56:43;92480.97;;;14.94;67.50
59289;BME280;45056;47.602;9.886;2022-09-16T02:59:12;92486.16;;;14.92;67.80
59289;BME280;45056;47.602;9.886;2022-09-16T03:01:44;92501.88;;;14.91;67.97
59289;BME280;45056;47.602;9.886;2022-09-16T03:04:15;92489.88;;;14.89;68.00
59289;BME280;45056;47.602;9.886;2022-09-16T03:06:47;92486.84;;;14.86;68.09
59289;BME280;45056;47.602;9.886;2022-09-16T03:09:16;92487.81;;;14.83;68.46
59289;BME280;45056;47.602;9.886;2022-09-16T03:12:11;92486.03;;;14.80;68.45
59289;BME280;45056;47.602;9.886;2022-09-16T03:15:14;92481.53;;;14.77;68.49
59289;BME280;45056;47.602;9.886;2022-09-16T03:18:07;92471.03;;;14.76;68.88
59289;BME280;45056;47.602;9.886;2022-09-16T03:20:57;92472.78;;;14.73;68.80
59289;BME280;45056;47.602;9.886;2022-09-16T03:23:43;92473.72;;;14.70;69.03
59289;BME280;45056;47.602;9.886;2022-09-16T03:26:27;92466.72;;;14.69;69.06
59289;BME280;45056;47.602;9.886;2022-09-16T03:29:12;92463.72;;;14.67;69.35
59289;BME280;45056;47.602;9.886;2022-09-16T03:31:56;92453.03;;;14.69;69.30
59289;BME280;45056;47.602;9.886;2022-09-16T03:34:36;92450.75;;;14.67;69.46
59289;BME280;45056;47.602;9.886;2022-09-16T03:37:11;92440.28;;;14.66;69.62
59289;BME280;45056;47.602;9.886;2022-09-16T03:39:50;92438.78;;;14.65;69.49
59289;BME280;45056;47.602;9.886;2022-09-16T03:42:20;92426.31;;;14.64;69.36
59289;BME280;45056;47.602;9.886;2022-09-16T03:44:48;92433.53;;;14.61;69.52
59289;BME280;45056;47.602;9.886;2022-09-16T03:47:17;92426.53;;;14.60;69.35
59289;BME280;45056;47.602;9.886;2022-09-16T03:49:45;92436.47;;;14.57;69.29
59289;BME280;45056;47.602;9.886;2022-09-16T03:52:13;92426.00;;;14.56;69.41
59289;BME280;45056;47.602;9.886;2022-09-16T03:54:44;92423.28;;;14.56;69.24
59289;BME280;45056;47.602;9.886;2022-09-16T03:57:13;92424.97;;;14.53;69.45
59289;BME280;45056;47.602;9.886;2022-09-16T03:59:41;92425.47;;;14.52;69.27
59289;BME280;45056;47.602;9.886;2022-09-16T04:02:09;92428.94;;;14.52;69.33
59289;BME280;45056;47.602;9.886;2022-09-16T04:04:37;92426.97;;;14.53;69.47
59289;BME280;45056;47.602;9.886;2022-09-16T04:07:05;92428.47;;;14.54;69.11
59289;BME280;45056;47.602;9.886;2022-09-16T04:09:33;92428.75;;;14.56;68.97
59289;BME280;45056;47.602;9.886;2022-09-16T04:12:03;92429.75;;;14.58;69.03
59289;BME280;45056;47.602;9.886;2022-09-16T04:14:34;92419.06;;;14.61;69.11
59289;BME280;45056;47.602;9.886;2022-09-16T04:17:03;92423.59;;;14.64;69.06
59289;BME280;45056;47.602;9.886;2022-09-16T04:19:31;92419.63;;;14.65;68.97
59289;BME280;45056;47.602;9.886;2022-09-16T04:21:59;92423.84;;;14.66;68.93
59289;BME280;45056;47.602;9.886;2022-09-16T04:24:27;92420.38;;;14.65;68.83
59289;BME280;45056;47.602;9.886;2022-09-16T04:26:55;92419.91;;;14.67;68.95
59289;BME280;45056;47.602;9.886;2022-09-16T04:29:23;92414.72;;;14.69;68.88
59289;BME280;45056;47.602;9.886;2022-09-16T04:31:53;92413.19;;;14.68;68.69
59289;BME280;45056;47.602;9.886;2022-09-16T04:34:21;92403.75;;;14.69;68.88
59289;BME280;45056;47.602;9.886;2022-09-16T04:36:49;92394.78;;;14.68;68.80
59289;BME280;45056;47.602;9.886;2022-09-16T04:39:17;92404.06;;;14.71;68.77
59289;BME280;45056;47.602;9.886;2022-09-16T04:41:45;92394.59;;;14.72;68.84
59289;BME280;45056;47.602;9.886;2022-09-16T04:44:13;92390.63;;;14.73;68.85
59289;BME280;45056;47.602;9.886;2022-09-16T04:46:41;92398.84;;;14.73;68.77
59289;BME280;45056;47.602;9.886;2022-09-16T04:49:11;92397.63;;;14.74;68.56
59289;BME280;45056;47.602;9.886;2022-09-16T04:51:39;92394.38;;;14.76;68.78
59289;BME280;45056;47.602;9.886;2022-09-16T04:54:07;92384.19;;;14.76;68.75
59289;BME280;45056;47.602;9.886;2022-09-16T04:56:35;92391.91;;;14.78;68.64
59289;BME280;45056;47.602;9.886;2022-09-16T04:59:04;92388.44;;;14.77;68.91
59289;BME280;45056;47.602;9.886;2022-09-16T05:01:36;92393.91;;;14.77;68.63
59289;BME280;45056;47.602;9.886;2022-09-16T05:04:06;92391.16;;;14.77;68.88
59289;BME280;45056;47.602;9.886;2022-09-16T05:06:39;92389.66;;;14.76;69.00
59289;BME280;45056;47.602;9.886;2022-09-16T05:09:10;92394.88;;;14.74;69.03
59289;BME280;45056;47.602;9.886;2022-09-16T05:11:39;92392.41;;;14.76;68.95
59289;BME280;45056;47.602;9.886;2022-09-16T05:14:12;92393.91;;;14.77;68.92
59289;BME280;45056;47.602;9.886;2022-09-16T05:16:42;92387.94;;;14.79;68.87
59289;BME280;45056;47.602;9.886;2022-09-16T05:19:12;92384.72;;;14.80;69.15
59289;BME280;45056;47.602;9.886;2022-09-16T05:21:42;92388.19;;;14.81;69.14
59289;BME280;45056;47.602;9.886;2022-09-16T05:24:11;92379.72;;;14.79;68.74
59289;BME280;45056;47.602;9.886;2022-09-16T05:26:42;92381.97;;;14.80;68.62
59289;BME280;45056;47.602;9.886;2022-09-16T05:29:12;92378.47;;;14.80;68.72
59289;BME280;45056;47.602;9.886;2022-09-16T05:31:43;92381.97;;;14.80;68.52
59289;BME280;45056;47.602;9.886;2022-09-16T05:34:15;92378.00;;;14.81;68.62
59289;BME280;45056;47.602;9.886;2022-09-16T05:36:47;92381.78;;;14.84;68.54
59289;BME280;45056;47.602;9.886;2022-09-16T05:39:19;92381.28;;;14.85;68.23
59289;BME280;45056;47.602;9.886;2022-09-16T05:41:51;92376.56;;;14.86;68.27
59289;BME280;45056;47.602;9.886;2022-09-16T05:44:20;92391.28;;;14.89;68.22
59289;BME280;45056;47.602;9.886;2022-09-16T05:46:49;92383.81;;;14.89;68.45
59289;BME280;45056;47.602;9.886;2022-09-16T05:49:17;92393.81;;;14.92;68.19
59289;BME280;45056;47.602;9.886;2022-09-16T05:51:48;92390.56;;;14.94;68.19
59289;BME280;45056;47.602;9.886;2022-09-16T05:54:17;92388.09;;;14.96;68.19
59289;BME280;45056;47.602;9.886;2022-09-16T05:56:46;92396.13;;;14.99;68.18
59289;BME280;45056;47.602;9.886;2022-09-16T05:59:16;92392.91;;;15.01;68.45
59289;BME280;45056;47.602;9.886;2022-09-16T06:01:45;92386.19;;;15.02;68.37
59289;BME280;45056;47.602;9.886;2022-09-16T06:04:14;92385.69;;;15.04;68.48
59289;BME280;45056;47.602;9.886;2022-09-16T06:06:43;92396.19;;;15.05;68.48
59289;BME280;45056;47.602;9.886;2022-09-16T06:09:16;92395.69;;;15.07;68.44
59289;BME280;45056;47.602;9.886;2022-09-16T06:11:47;92392.72;;;15.10;68.10
59289;BME280;45056;47.602;9.886;2022-09-16T06:14:18;92387.50;;;15.12;68.01
59289;BME280;45056;47.602;9.886;2022-09-16T06:16:48;92389.28;;;15.15;67.99
59289;BME280;45056;47.602;9.886;2022-09-16T06:19:17;92387.56;;;15.18;68.23
59289;BME280;45056;47.602;9.886;2022-09-16T06:21:46;92390.84;;;15.22;68.14
59289;BME280;45056;47.602;9.886;2022-09-16T06:24:17;92386.38;;;15.25;68.23
59289;BME280;45056;47.602;9.886;2022-09-16T06:26:47;92381.91;;;15.27;68.19
59289;BME280;45056;47.602;9.886;2022-09-16T06:29:16;92373.50;;;15.31;67.56
59289;BME280;45056;47.602;9.886;2022-09-16T06:31:44;92377.03;;;15.37;67.07
59289;BME280;45056;47.602;9.886;2022-09-16T06:34:14;92372.31;;;15.43;67.13
59289;BME280;45056;47.602;9.886;2022-09-16T06:36:44;92375.84;;;15.50;67.30
59289;BME280;45056;47.602;9.886;2022-09-16T06:39:16;92365.69;;;15.56;66.99
59289;BME280;45056;47.602;9.886;2022-09-16T06:41:44;92372.94;;;15.59;66.52
59289;BME280;45056;47.602;9.886;2022-09-16T06:44:12;92374.97;;;15.64;66.27
59289;BME280;45056;47.602;9.886;2022-09-16T06:46:40;92377.97;;;15.66;65.84
59289;BME280;45056;47.602;9.886;2022-09-16T06:49:09;92377.47;;;15.68;65.26
59289;BME280;45056;47.602;9.886;2022-09-16T06:51:38;92377.75;;;15.70;65.13
59289;BME280;45056;47.602;9.886;2022-09-16T06:54:07;92376.75;;;15.73;64.88
59289;BME280;45056;47.602;9.886;2022-09-16T06:56:36;92377.03;;;15.75;65.02
59289;BME280;45056;47.602;9.886;2022-09-16T06:59:07;92369.06;;;15.77;65.30
59289;BME280;45056;47.602;9.886;2022-09-16T07:01:36;92365.84;;;15.79;65.45
59289;BME280;45056;47.602;9.886;2022-09-16T07:04:06;92367.84;;;15.78;66.46
59289;BME280;45056;47.602;9.886;2022-09-16T07:06:38;92366.34;;;15.77;67.13
59289;BME280;45056;47.602;9.886;2022-09-16T07:09:07;92367.06;;;15.78;67.61
59289;BME280;45056;47.602;9.886;2022-09-16T07:11:37;92365.34;;;15.80;67.87
59289;BME280;45056;47.602;9.886;2022-09-16T07:14:07;92373.59;;;15.86;67.51
59289;BME280;45056;47.602;9.886;2022-09-16T07:16:35;92370.19;;;15.91;67.21
59289;BME280;45056;47.602;9.886;2022-09-16T07:19:04;92368.47;;;15.99;67.00
59289;BME280;45056;47.602;9.886;2022-09-16T07:21:32;92379.47;;;16.05;66.56
59289;BME280;45056;47.602;9.886;2022-09-16T07:24:01;92376.03;;;16.10;66.43
59289;BME280;45056;47.602;9.886;2022-09-16T07:26:32;92381.53;;;16.16;66.39
59289;BME280;45056;47.602;9.886;2022-09-16T07:29:06;92375.31;;;16.21;66.46
59289;BME280;45056;47.602;9.886;2022-09-16T07:31:37;92377.09;;;16.24;66.27
59289;BME280;45056;47.602;9.886;2022-09-16T07:34:08;92376.59;;;16.26;65.71
59289;BME280;45056;47.602;9.886;2022-09-16T07:36:40;92377.09;;;16.24;65.79
59289;BME280;45056;47.602;9.886;2022-09-16T07:39:10;92378.34;;;16.23;65.89
59289;BME280;45056;47.602;9.886;2022-09-16T07:41:42;92385.06;;;16.28;65.99
59289;BME280;45056;47.602;9.886;2022-09-16T07:44:14;92370.63;;;16.33;66.28
59289;BME280;45056;47.602;9.886;2022-09-16T07:46:43;92379.88;;;16.36;66.20
59289;BME280;45056;47.602;9.886;2022-09-16T07:49:13;92381.84;;;16.35;66.04
59289;BME280;45056;47.602;9.886;2022-09-16T07:51:42;92391.34;;;16.34;65.88
59289;BME280;45056;47.602;9.886;2022-09-16T07:54:13;92394.84;;;16.35;66.15
59289;BME280;45056;47.602;9.886;2022-09-16T07:56:43;92396.09;;;16.34;66.39
59289;BME280;45056;47.602;9.886;2022-09-16T07:59:15;92395.84;;;16.32;66.28
59289;BME280;45056;47.602;9.886;2022-09-16T08:01:45;92405.31;;;16.30;66.08
59289;BME280;45056;47.602;9.886;2022-09-16T08:04:14;92395.84;;;16.32;66.28
59289;BME280;45056;47.602;9.886;2022-09-16T08:06:43;92398.84;;;16.34;66.54
59289;BME280;45056;47.602;9.886;2022-09-16T08:09:11;92402.81;;;16.33;66.03
59289;BME280;45056;47.602;9.886;2022-09-16T08:11:40;92402.06;;;16.32;65.24
59289;BME280;45056;47.602;9.886;2022-09-16T08:14:08;92397.56;;;16.29;63.89
59289;BME280;45056;47.602;9.886;2022-09-16T08:16:38;92407.53;;;16.26;63.38
59289;BME280;45056;47.602;9.886;2022-09-16T08:19:05;92405.03;;;16.23;62.82
59289;BME280;45056;47.602;9.886;2022-09-16T08:21:33;92414.25;;;16.20;62.90
59289;BME280;45056;47.602;9.886;2022-09-16T08:24:01;92417.97;;;16.17;62.81
59289;BME280;45056;47.602;9.886;2022-09-16T08:26:30;92417.72;;;16.14;62.87
59289;BME280;45056;47.602;9.886;2022-09-16T08:28:58;92420.66;;;16.11;63.06
59289;BME280;45056;47.602;9.886;2022-09-16T08:31:26;92421.66;;;16.08;63.10
59289;BME280;45056;47.602;9.886;2022-09-16T08:33:56;92425.38;;;16.05;63.86
59289;BME280;45056;47.602;9.886;2022-09-16T08:36:24;92427.59;;;16.00;64.51
59289;BME280;45056;47.602;9.886;2022-09-16T08:38:55;92434.81;;;15.98;65.00
59289;BME280;45056;47.602;9.886;2022-09-16T08:41:48;92419.81;;;15.93;65.45
59289;BME280;45056;47.602;9.886;2022-09-16T08:44:34;92435.00;;;15.89;66.19
59289;BME280;45056;47.602;9.886;2022-09-16T08:47:20;92436.22;;;15.87;66.30
59289;BME280;45056;47.602;9.886;2022-09-16T08:50:04;92436.69;;;15.86;66.53
59289;BME280;45056;47.602;9.886;2022-09-16T08:52:43;92428.75;;;15.88;67.10
59289;BME280;45056;47.602;9.886;2022-09-16T08:55:17;92431.28;;;15.92;67.24
59289;BME280;45056;47.602;9.886;2022-09-16T08:57:57;92426.81;;;15.94;67.20
59289;BME280;45056;47.602;9.886;2022-09-16T09:00:29;92438.78;;;15.97;67.16
59289;BME280;45056;47.602;9.886;2022-09-16T09:03:09;92434.31;;;15.99;67.14
59289;BME280;45056;47.602;9.886;2022-09-16T09:05:50;92437.81;;;16.00;67.15
59289;BME280;45056;47.602;9.886;2022-09-16T09:08:39;92436.09;;;16.03;66.78
59289;BME280;45056;47.602;9.886;2022-09-16T09:11:20;92438.13;;;16.08;66.54
59289;BME280;45056;47.602;9.886;2022-09-16T09:14:09;92432.88;;;16.10;66.70
59289;BME280;45056;47.602;9.886;2022-09-16T09:16:57;92435.16;;;16.17;66.87
59289;BME280;45056;47.602;9.886;2022-09-16T09:19:44;92434.94;;;16.21;66.71
59289;BME280;45056;47.602;9.886;2022-09-16T09:22:41;92437.94;;;16.23;66.73
59289;BME280;45056;47.602;9.886;2022-09-16T09:25:31;92435.72;;;16.27;66.94
59289;BME280;45056;47.602;9.886;2022-09-16T09:28:22;92429.25;;;16.30;66.49
59289;BME280;45056;47.602;9.886;2022-09-16T09:31:12;92424.78;;;16.33;66.34
59289;BME280;45056;47.602;9.886;2022-09-16T09:33:58;92426.81;;;16.38;65.79
59289;BME280;45056;47.602;9.886;2022-09-16T09:36:50;92423.28;;;16.37;65.31
59289;BME280;45056;47.602;9.886;2022-09-16T09:39:46;92418.59;;;16.43;65.12
59289;BME280;45056;47.602;9.886;2022-09-16T09:42:28;92420.63;;;16.49;64.74
59289;BME280;45056;47.602;9.886;2022-09-16T09:45:02;92423.13;;;16.52;64.53
59289;BME280;45056;47.602;9.886;2022-09-16T09:47:44;92413.41;;;16.57;63.96
59289;BME280;45056;47.602;9.886;2022-09-16T09:50:20;92422.16;;;16.61;63.93
59289;BME280;45056;47.602;9.886;2022-09-16T09:53:04;92429.41;;;16.64;63.26
59289;BME280;45056;47.602;9.886;2022-09-16T09:55:46;92421.69;;;16.63;62.29
59289;BME280;45056;47.602;9.886;2022-09-16T09:58:24;92431.63;;;16.60;62.35
59289;BME280;45056;47.602;9.886;2022-09-16T10:01:00;92417.91;;;16.60;62.21
59289;BME280;45056;47.602;9.886;2022-09-16T10:03:30;92414.94;;;16.64;62.38
59289;BME280;45056;47.602;9.886;2022-09-16T10:05:58;92421.16;;;16.64;62.23
59289;BME280;45056;47.602;9.886;2022-09-16T10:08:41;92421.16;;;16.64;61.90
59289;BME280;45056;47.602;9.886;2022-09-16T10:11:19;92421.69;;;16.63;62.26
59289;BME280;45056;47.602;9.886;2022-09-16T10:13:50;92415.41;;;16.62;62.05
59289;BME280;45056;47.602;9.886;2022-09-16T10:16:21;92412.41;;;16.60;62.45
59289;BME280;45056;47.602;9.886;2022-09-16T10:18:57;92414.44;;;16.59;62.40
59289;BME280;45056;47.602;9.886;2022-09-16T10:21:40;92412.94;;;16.58;62.74
59289;BME280;45056;47.602;9.886;2022-09-16T10:24:28;92412.94;;;16.58;62.97
59289;BME280;45056;47.602;9.886;2022-09-16T10:27:01;92409.66;;;16.60;63.22
59289;BME280;45056;47.602;9.886;2022-09-16T10:29:46;92408.19;;;16.65;63.13
59289;BME280;45056;47.602;9.886;2022-09-16T10:32:17;92408.22;;;16.70;63.04
59289;BME280;45056;47.602;9.886;2022-09-16T10:34:46;92400.00;;;16.76;62.72
59289;BME280;45056;47.602;9.886;2022-09-16T10:37:17;92400.50;;;16.80;62.03
59289;BME280;45056;47.602;9.886;2022-09-16T10:39:51;92401.75;;;16.85;62.04
59289;BME280;45056;47.602;9.886;2022-09-16T10:42:25;92404.53;;;16.91;61.84
59289;BME280;45056;47.602;9.886;2022-09-16T10:45:14;92387.59;;;16.98;61.04
59289;BME280;45056;47.602;9.886;2022-09-16T10:47:51;92387.88;;;17.06;60.78
59289;BME280;45056;47.602;9.886;2022-09-16T10:50:23;92384.84;;;17.09;60.29
59289;BME280;45056;47.602;9.886;2022-09-16T10:52:53;92375.13;;;17.20;60.42
59289;BME280;45056;47.602;9.886;2022-09-16T10:55:25;92366.63;;;17.29;60.44
59289;BME280;45056;47.602;9.886;2022-09-16T10:58:07;92371.88;;;17.38;59.93
59289;BME280;45056;47.602;9.886;2022-09-16T11:00:47;92364.91;;;17.49;59.11
59289;BME280;45056;47.602;9.886;2022-09-16T11:04:00;92374.63;;;17.61;59.46
59289;BME280;45056;47.602;9.886;2022-09-16T11:07:06;92378.66;;;17.66;58.42
59289;BME280;45056;47.602;9.886;2022-09-16T11:09:51;92375.13;;;17.65;58.09
59289;BME280;45056;47.602;9.886;2022-09-16T11:12:44;92369.13;;;17.61;58.46
59289;BME280;45056;47.602;9.886;2022-09-16T11:15:43;92372.88;;;17.52;58.78
59289;BME280;45056;47.602;9.886;2022-09-16T11:18:39;92373.16;;;17.43;59.18
59289;BME280;45056;47.602;9.886;2022-09-16T11:21:33;92378.38;;;17.35;59.52
59289;BME280;45056;47.602;9.886;2022-09-16T11:24:42;92373.38;;;17.28;59.61
59289;BME280;45056;47.602;9.886;2022-09-16T11:27:44;92381.88;;;17.19;59.76
59289;BME280;45056;47.602;9.886;2022-09-16T11:30:20;92381.88;;;17.13;60.40
59289;BME280;45056;47.602;9.886;2022-09-16T11:36:15;92382.81;;;16.93;61.68
59289;BME280;45056;47.602;9.886;2022-09-16T11:39:01;92411.72;;;16.82;61.97
59289;BME280;45056;47.602;9.886;2022-09-16T11:41:52;92425.44;;;16.71;62.19
59289;BME280;45056;47.602;9.886;2022-09-16T11:44:36;92430.09;;;16.53;61.20
59289;BME280;45056;47.602;9.886;2022-09-16T11:47:31;92434.00;;;16.35;61.28
59289;BME280;45056;47.602;9.886;2022-09-16T11:50:21;92428.69;;;16.20;61.63
59289;BME280;45056;47.602;9.886;2022-09-16T11:53:27;92419.16;;;16.10;61.89
59289;BME280;45056;47.602;9.886;2022-09-16T11:56:12;92421.59;;;15.96;62.16
59289;BME280;45056;47.602;9.886;2022-09-16T11:58:47;92419.81;;;15.93;62.47
59289;BME280;45056;47.602;9.886;2022-09-16T12:01:29;92414.34;;;15.99;62.86
59289;BME280;45056;47.602;9.886;2022-09-16T12:04:08;92422.84;;;16.01;62.37
59289;BME280;45056;47.602;9.886;2022-09-16T12:06:53;92432.81;;;15.98;61.74
59289;BME280;45056;47.602;9.886;2022-09-16T12:09:35;92427.50;;;15.89;61.82
59289;BME280;45056;47.602;9.886;2022-09-16T12:12:12;92435.44;;;15.81;61.99
59289;BME280;45056;47.602;9.886;2022-09-16T12:14:47;92437.84;;;15.73;62.33
59289;BME280;45056;47.602;9.886;2022-09-16T12:17:23;92446.78;;;15.68;62.58
59289;BME280;45056;47.602;9.886;2022-09-16T12:19:59;92453.72;;;15.64;62.74
59289;BME280;45056;47.602;9.886;2022-09-16T12:22:41;92451.91;;;15.55;62.43
59289;BME280;45056;47.602;9.886;2022-09-16T12:25:17;92452.84;;;15.46;62.31
59289;BME280;45056;47.602;9.886;2022-09-16T12:27:52;92468.97;;;15.38;62.49
59289;BME280;45056;47.602;9.886;2022-09-16T12:30:33;92464.66;;;15.32;62.93
59289;BME280;45056;47.602;9.886;2022-09-16T12:33:13;92462.38;;;15.24;62.68
59289;BME280;45056;47.602;9.886;2022-09-16T12:36:03;92457.59;;;15.19;63.15
59289;BME280;45056;47.602;9.886;2022-09-16T12:38:36;92449.56;;;15.15;63.58
59289;BME280;45056;47.602;9.886;2022-09-16T12:41:32;92459.03;;;15.14;63.93
59289;BME280;45056;47.602;9.886;2022-09-16T12:44:47;92465.19;;;15.09;63.96
59289;BME280;45056;47.602;9.886;2022-09-16T12:50:59;92465.41;;;15.06;64.24
59289;BME280;45056;47.602;9.886;2022-09-16T12:54:09;92465.13;;;15.04;64.10
59289;BME280;45056;47.602;9.886;2022-09-16T12:57:14;92464.41;;;15.03;64.35
59289;BME280;45056;47.602;9.886;2022-09-16T13:00:09;92465.38;;;15.00;64.22
59289;BME280;45056;47.602;9.886;2022-09-16T13:02:48;92468.31;;;14.96;64.39
59289;BME280;45056;47.602;9.886;2022-09-16T13:05:28;92468.50;;;14.93;64.30
59289;BME280;45056;47.602;9.886;2022-09-16T13:08:03;92487.91;;;14.89;64.40
59289;BME280;45056;47.602;9.886;2022-09-16T13:10:36;92492.06;;;14.84;64.62
59289;BME280;45056;47.602;9.886;2022-09-16T13:13:18;92484.81;;;14.81;64.83
59289;BME280;45056;47.602;9.886;2022-09-16T13:15:55;92477.75;;;14.75;65.10
59289;BME280;45056;47.602;9.886;2022-09-16T13:18:39;92474.00;;;14.72;65.49
59289;BME280;45056;47.602;9.886;2022-09-16T13:21:24;92474.94;;;14.69;65.39
59289;BME280;45056;47.602;9.886;2022-09-16T13:24:02;92478.34;;;14.64;65.85
59289;BME280;45056;47.602;9.886;2022-09-16T13:26:42;92476.56;;;14.61;65.65
59289;BME280;45056;47.602;9.886;2022-09-16T13:29:37;92478.56;;;14.60;65.62
59289;BME280;45056;47.602;9.886;2022-09-16T13:32:26;92481.75;;;14.58;65.43
59289;BME280;45056;47.602;9.886;2022-09-16T13:35:03;92483.50;;;14.56;65.06
59289;BME280;45056;47.602;9.886;2022-09-16T13:37:50;92480.75;;;14.56;65.35
59289;BME280;45056;47.602;9.886;2022-09-16T13:40:22;92484.44;;;14.53;65.45
59289;BME280;45056;47.602;9.886;2022-09-16T13:43:12;92484.19;;;14.51;65.57
59289;BME280;45056;47.602;9.886;2022-09-16T13:45:42;92484.66;;;14.49;65.49
59289;BME280;45056;47.602;9.886;2022-09-16T13:48:16;92480.41;;;14.48;65.63
59289;BME280;45056;47.602;9.886;2022-09-16T13:50:50;92481.63;;;14.47;65.58
59289;BME280;45056;47.602;9.886;2022-09-16T13:53:28;92479.34;;;14.46;65.54
59289;BME280;45056;47.602;9.886;2022-09-16T13:56:05;92477.59;;;14.42;65.67
59289;BME280;45056;47.602;9.886;2022-09-16T13:59:00;92483.81;;;14.43;65.67
59289;BME280;45056;47.602;9.886;2022-09-16T14:01:42;92486.28;;;14.41;65.83